Weather reports worldwide

Advertisment
Blencathra, United Kingdom (99143): temperature & dewpoint: 04.07.2020 04:00:00 - 10.07.2020 04:00:00 (BST)Blencathra, United Kingdom (99143): precipitation: 04.07.2020 04:00:00 - 10.07.2020 04:00:00 (BST)
Date & Time tt [°C] td [°C] rr [mm]
10.07.2020 04:00:00 9,0 7,6 0,0
10.07.2020 03:00:00 9,1 7,8 0,0
10.07.2020 02:00:00 8,7 7,8 0,0
10.07.2020 01:00:00 9,3 7,3 0,0
10.07.2020 00:00:00 10,7 10,2 0,8
09.07.2020 23:00:00 10,7 9,9 0,2
09.07.2020 22:00:00 11,1 10,1 1,0
09.07.2020 21:00:00 10,8 9,1 7,6
09.07.2020 20:00:00 12,3 10,1 5,2
09.07.2020 19:00:00 14,2 9,4 0,0
09.07.2020 18:00:00 15,2 9,0 0,0
09.07.2020 17:00:00 15,5 8,7 0,0
09.07.2020 16:00:00 14,8 9,0 0,0
09.07.2020 15:00:00 14,7 8,9 0,0
09.07.2020 14:00:00 14,5 9,1 0,0
09.07.2020 13:00:00 14,0 8,7 0,0
09.07.2020 12:00:00 13,2 8,6 0,0
09.07.2020 11:00:00 12,6 8,4 0,0
09.07.2020 10:00:00 12,7 8,6 0,0
09.07.2020 09:00:00 11,0 7,9 0,0
09.07.2020 08:00:00 10,4 7,9 0,0
09.07.2020 07:00:00 9,9 8,0 0,0
09.07.2020 06:00:00 9,8 8,5 0,0
09.07.2020 05:00:00 9,7 8,7 0,2
09.07.2020 04:00:00 10,1 8,5 0,0
09.07.2020 03:00:00 10,5 8,3 0,0
09.07.2020 02:00:00 10,5 8,6 0,0
09.07.2020 01:00:00 10,5 9,1 0,2
09.07.2020 00:00:00 10,7 9,3 0,8
08.07.2020 23:00:00 10,9 9,4 0,6
08.07.2020 22:00:00 11,2 9,3 0,4
08.07.2020 21:00:00 11,5 9,6 0,2
08.07.2020 20:00:00 12,0 9,7 0,2
08.07.2020 19:00:00 12,3 10,4 0,4
08.07.2020 18:00:00 12,6 10,8 0,6
08.07.2020 17:00:00 13,5 9,4 0,0
08.07.2020 16:00:00 13,9 8,9 0,0
08.07.2020 15:00:00 14,1 8,8 0,0
08.07.2020 14:00:00 15,3 8,5 0,0
08.07.2020 13:00:00 15,6 8,4 0,0
08.07.2020 12:00:00 15,3 8,7 0,0
08.07.2020 11:00:00 13,4 8,4 0,0
08.07.2020 10:00:00 13,4 9,6 0,0
08.07.2020 09:00:00 12,7 8,9 0,0
08.07.2020 08:00:00 12,6 8,9 0,0
08.07.2020 07:00:00 10,0 8,2 0,0
08.07.2020 06:00:00 8,4 7,4 0,0
08.07.2020 05:00:00 8,1 7,3 0,0
08.07.2020 04:00:00 8,1 7,1 0,0
08.07.2020 03:00:00 8,8 7,5 0,0
08.07.2020 02:00:00 9,6 8,3 0,0
08.07.2020 01:00:00 9,8 8,4 0,0
08.07.2020 00:00:00 10,0 8,4 0,0
07.07.2020 23:00:00 10,0 8,7 0,0
07.07.2020 22:00:00 10,3 8,8 0,0
07.07.2020 21:00:00 10,4 8,9 0,0
07.07.2020 20:00:00 10,9 9,0 0,0
07.07.2020 19:00:00 11,2 8,8 0,0
07.07.2020 18:00:00 10,4 9,6 0,2
07.07.2020 17:00:00 10,4 8,9 0,0
07.07.2020 16:00:00 10,3 8,6 0,0
07.07.2020 15:00:00 9,8 9,0 0,8
07.07.2020 14:00:00 11,6 8,7 0,0
07.07.2020 13:00:00 11,1 10,0 0,0
07.07.2020 12:00:00 10,0 9,1 0,6
07.07.2020 11:00:00 10,3 8,5 0,2
07.07.2020 10:00:00 11,0 6,9 0,0
07.07.2020 09:00:00 11,0 8,4 0,0
07.07.2020 08:00:00 10,7 8,6 0,0
07.07.2020 07:00:00 10,2 8,4 0,0
07.07.2020 06:00:00 9,9 8,3 0,0
07.07.2020 05:00:00 9,8 8,1 0,0
07.07.2020 04:00:00 10,2 7,3 0,0
07.07.2020 03:00:00 10,1 7,9 0,0
07.07.2020 02:00:00 10,2 8,2 0,0
07.07.2020 01:00:00 10,2 8,0 0,0
07.07.2020 00:00:00 10,0 7,2 0,0
06.07.2020 23:00:00 10,1 6,3 0,0
06.07.2020 22:00:00 10,6 7,0 0,0
06.07.2020 21:00:00 10,9 6,5 0,0
06.07.2020 20:00:00 11,7 7,4 0,0
06.07.2020 19:00:00 12,6 8,2 0,0
06.07.2020 18:00:00 13,0 7,5 0,0
06.07.2020 17:00:00 13,6 8,1 0,0
06.07.2020 16:00:00 14,2 8,0 0,0
06.07.2020 15:00:00 14,5 7,7 0,0
06.07.2020 14:00:00 13,7 6,9 0,0
06.07.2020 13:00:00 13,3 8,3 0,0
06.07.2020 12:00:00 12,7 7,7 0,0
06.07.2020 11:00:00 12,3 8,3 0,0
06.07.2020 10:00:00 12,3 8,5 0,0
06.07.2020 09:00:00 12,1 8,6 0,0
06.07.2020 08:00:00 10,9 7,9 0,0
06.07.2020 07:00:00 10,6 9,1 0,0
06.07.2020 06:00:00 10,2 8,9 0,4
06.07.2020 05:00:00 9,9 8,6 0,4
06.07.2020 04:00:00 9,9 8,1 0,2
06.07.2020 03:00:00 10,0 8,2 0,0
06.07.2020 02:00:00 10,2 7,9 0,0
06.07.2020 01:00:00 10,1 7,6 0,0
06.07.2020 00:00:00 10,3 7,6 0,0
05.07.2020 23:00:00 10,4 7,9 0,2
05.07.2020 22:00:00 10,2 8,3 0,0
05.07.2020 21:00:00 10,2 8,2 0,2
05.07.2020 20:00:00 9,9 8,7 1,4
05.07.2020 19:00:00 9,3 8,0 1,4
05.07.2020 18:00:00 10,7 8,8 1,2
05.07.2020 17:00:00 12,0 7,9 0,4
05.07.2020 16:00:00 11,2 8,3 0,2
05.07.2020 15:00:00 12,0 8,4 0,0
05.07.2020 14:00:00 12,3 8,1 0,2
05.07.2020 13:00:00 11,9 8,1 0,0
05.07.2020 12:00:00 11,7 7,4 0,0
05.07.2020 11:00:00 11,0 7,5 0,0
05.07.2020 10:00:00 10,9 7,8 0,0
05.07.2020 09:00:00 10,4 8,4 0,2
05.07.2020 08:00:00 10,4 8,6 0,2
05.07.2020 07:00:00 10,9 8,7 0,2
05.07.2020 06:00:00 11,7 9,0 0,0
05.07.2020 05:00:00 12,3 10,3 0,2
05.07.2020 04:00:00 13,1 12,5 2,6
05.07.2020 03:00:00 14,1 13,4 0,4
05.07.2020 02:00:00 14,2 13,7 0,4
05.07.2020 01:00:00 14,3 13,9 0,6
05.07.2020 00:00:00 13,9 13,1 0,8
04.07.2020 23:00:00 14,5 13,8 0,8
04.07.2020 22:00:00 14,6 14,1 0,8
04.07.2020 21:00:00 13,8 13,4 0,4
04.07.2020 20:00:00 13,6 13,2 0,2
04.07.2020 19:00:00 13,7 13,4 0,0
04.07.2020 18:00:00 13,8 13,3 0,2
04.07.2020 17:00:00 13,8 13,2 0,0
04.07.2020 16:00:00 13,4 12,9 0,6
04.07.2020 15:00:00 13,3 12,8 0,6
04.07.2020 14:00:00 13,7 12,9 0,2
04.07.2020 13:00:00 13,6 13,0 0,2
04.07.2020 12:00:00 14,1 13,6 0,0
04.07.2020 11:00:00 14,6 14,3 0,0
04.07.2020 10:00:00 14,0 13,8 0,0
04.07.2020 09:00:00 13,8 13,7 0,0
04.07.2020 08:00:00 13,5 13,4 0,2
04.07.2020 07:00:00 13,2 13,1 0,6
04.07.2020 06:00:00 13,0 12,9 1,2
04.07.2020 05:00:00 12,9 12,7 1,8
04.07.2020 04:00:00 12,9 12,7 1,6

tt = temperature
td = dewpoint
rr = precipitation

Next stations